sensor_id;sensor_type;location;lat;lon;timestamp;temperature;humidity
4487;DHT22;2256;48.740;9.106;2022-07-03T00:00:13;17.70;99.40
4487;DHT22;2256;48.740;9.106;2022-07-03T00:02:39;17.70;99.60
4487;DHT22;2256;48.740;9.106;2022-07-03T00:05:07;17.70;99.70
4487;DHT22;2256;48.740;9.106;2022-07-03T00:07:34;17.80;99.70
4487;DHT22;2256;48.740;9.106;2022-07-03T00:10:03;17.80;99.70
4487;DHT22;2256;48.740;9.106;2022-07-03T00:12:29;17.80;99.80
4487;DHT22;2256;48.740;9.106;2022-07-03T00:14:58;17.90;99.90
4487;DHT22;2256;48.740;9.106;2022-07-03T00:17:24;17.80;99.90
4487;DHT22;2256;48.740;9.106;2022-07-03T00:19:51;17.80;99.90
4487;DHT22;2256;48.740;9.106;2022-07-03T00:22:18;17.90;99.90
4487;DHT22;2256;48.740;9.106;2022-07-03T00:24:50;17.90;99.90
4487;DHT22;2256;48.740;9.106;2022-07-03T00:27:19;17.90;99.90
4487;DHT22;2256;48.740;9.106;2022-07-03T00:29:46;17.90;99.90
4487;DHT22;2256;48.740;9.106;2022-07-03T00:32:21;17.90;99.90
4487;DHT22;2256;48.740;9.106;2022-07-03T00:34:50;17.80;99.90
4487;DHT22;2256;48.740;9.106;2022-07-03T00:37:17;17.80;99.90
4487;DHT22;2256;48.740;9.106;2022-07-03T00:39:44;17.90;99.90
4487;DHT22;2256;48.740;9.106;2022-07-03T00:42:12;17.90;99.90
4487;DHT22;2256;48.740;9.106;2022-07-03T00:44:44;17.90;99.90
4487;DHT22;2256;48.740;9.106;2022-07-03T00:47:12;17.90;99.90
4487;DHT22;2256;48.740;9.106;2022-07-03T00:49:43;17.90;99.90
4487;DHT22;2256;48.740;9.106;2022-07-03T00:52:12;17.80;99.90
4487;DHT22;2256;48.740;9.106;2022-07-03T00:54:43;17.90;99.90
4487;DHT22;2256;48.740;9.106;2022-07-03T00:57:14;18.00;99.90
4487;DHT22;2256;48.740;9.106;2022-07-03T00:59:41;18.00;99.90
4487;DHT22;2256;48.740;9.106;2022-07-03T01:02:25;17.90;99.90
4487;DHT22;2256;48.740;9.106;2022-07-03T01:05:02;17.90;99.90
4487;DHT22;2256;48.740;9.106;2022-07-03T01:07:39;17.80;99.90
4487;DHT22;2256;48.740;9.106;2022-07-03T01:10:12;17.80;99.90
4487;DHT22;2256;48.740;9.106;2022-07-03T01:12:54;17.80;99.90
4487;DHT22;2256;48.740;9.106;2022-07-03T01:15:29;17.80;99.90
4487;DHT22;2256;48.740;9.106;2022-07-03T01:18:08;17.80;99.90
4487;DHT22;2256;48.740;9.106;2022-07-03T01:20:41;17.70;99.90
4487;DHT22;2256;48.740;9.106;2022-07-03T01:23:19;17.60;99.90
4487;DHT22;2256;48.740;9.106;2022-07-03T01:25:49;17.60;99.90
4487;DHT22;2256;48.740;9.106;2022-07-03T01:28:18;17.60;99.90
4487;DHT22;2256;48.740;9.106;2022-07-03T01:30:48;17.60;99.90
4487;DHT22;2256;48.740;9.106;2022-07-03T01:33:16;17.60;99.90
4487;DHT22;2256;48.740;9.106;2022-07-03T01:35:51;17.60;99.90
4487;DHT22;2256;48.740;9.106;2022-07-03T01:38:21;17.60;99.90
4487;DHT22;2256;48.740;9.106;2022-07-03T01:40:51;17.70;99.90
4487;DHT22;2256;48.740;9.106;2022-07-03T01:43:23;17.60;99.90
4487;DHT22;2256;48.740;9.106;2022-07-03T01:45:53;17.70;99.90
4487;DHT22;2256;48.740;9.106;2022-07-03T01:48:23;17.60;99.90
4487;DHT22;2256;48.740;9.106;2022-07-03T01:50:49;17.70;99.90
4487;DHT22;2256;48.740;9.106;2022-07-03T01:53:17;17.70;99.90
4487;DHT22;2256;48.740;9.106;2022-07-03T01:55:46;17.70;99.90
4487;DHT22;2256;48.740;9.106;2022-07-03T01:58:16;17.70;99.90
4487;DHT22;2256;48.740;9.106;2022-07-03T02:01:02;17.70;99.90
4487;DHT22;2256;48.740;9.106;2022-07-03T02:03:32;17.80;99.90
4487;DHT22;2256;48.740;9.106;2022-07-03T02:06:04;17.90;99.90
4487;DHT22;2256;48.740;9.106;2022-07-03T02:08:43;17.90;99.90
4487;DHT22;2256;48.740;9.106;2022-07-03T02:11:14;17.90;99.90
4487;DHT22;2256;48.740;9.106;2022-07-03T02:13:51;17.80;99.90
4487;DHT22;2256;48.740;9.106;2022-07-03T02:16:19;17.80;99.90
4487;DHT22;2256;48.740;9.106;2022-07-03T02:18:55;17.70;99.90
4487;DHT22;2256;48.740;9.106;2022-07-03T02:21:26;17.70;99.90
4487;DHT22;2256;48.740;9.106;2022-07-03T02:23:58;17.60;99.90
4487;DHT22;2256;48.740;9.106;2022-07-03T02:26:32;17.50;99.90
4487;DHT22;2256;48.740;9.106;2022-07-03T02:29:03;17.50;99.90
4487;DHT22;2256;48.740;9.106;2022-07-03T02:31:38;17.50;99.90
4487;DHT22;2256;48.740;9.106;2022-07-03T02:34:07;17.50;99.90
4487;DHT22;2256;48.740;9.106;2022-07-03T02:36:35;17.40;99.90
4487;DHT22;2256;48.740;9.106;2022-07-03T02:39:04;17.40;99.90
4487;DHT22;2256;48.740;9.106;2022-07-03T02:41:42;17.30;99.90
4487;DHT22;2256;48.740;9.106;2022-07-03T02:44:20;17.30;99.90
4487;DHT22;2256;48.740;9.106;2022-07-03T02:46:54;17.20;99.90
4487;DHT22;2256;48.740;9.106;2022-07-03T02:49:41;17.20;99.90
4487;DHT22;2256;48.740;9.106;2022-07-03T02:52:14;17.30;99.90
4487;DHT22;2256;48.740;9.106;2022-07-03T02:54:45;17.20;99.90
4487;DHT22;2256;48.740;9.106;2022-07-03T02:57:13;17.20;99.90
4487;DHT22;2256;48.740;9.106;2022-07-03T02:59:54;17.30;99.90
4487;DHT22;2256;48.740;9.106;2022-07-03T03:02:42;17.30;99.90
4487;DHT22;2256;48.740;9.106;2022-07-03T03:05:20;17.20;99.90
4487;DHT22;2256;48.740;9.106;2022-07-03T03:07:56;17.20;99.90
4487;DHT22;2256;48.740;9.106;2022-07-03T03:10:26;17.10;99.90
4487;DHT22;2256;48.740;9.106;2022-07-03T03:13:08;17.10;99.90
4487;DHT22;2256;48.740;9.106;2022-07-03T03:15:37;17.10;99.90
4487;DHT22;2256;48.740;9.106;2022-07-03T03:18:05;17.10;99.90
4487;DHT22;2256;48.740;9.106;2022-07-03T03:20:34;17.00;99.90
4487;DHT22;2256;48.740;9.106;2022-07-03T03:23:21;17.00;99.90
4487;DHT22;2256;48.740;9.106;2022-07-03T03:25:51;16.90;99.90
4487;DHT22;2256;48.740;9.106;2022-07-03T03:28:18;16.90;99.90
4487;DHT22;2256;48.740;9.106;2022-07-03T03:30:47;16.90;99.90
4487;DHT22;2256;48.740;9.106;2022-07-03T03:33:15;16.90;99.90
4487;DHT22;2256;48.740;9.106;2022-07-03T03:35:43;16.80;99.90
4487;DHT22;2256;48.740;9.106;2022-07-03T03:38:10;16.90;99.90
4487;DHT22;2256;48.740;9.106;2022-07-03T03:40:37;16.90;99.90
4487;DHT22;2256;48.740;9.106;2022-07-03T03:43:04;16.90;99.90
4487;DHT22;2256;48.740;9.106;2022-07-03T03:45:31;16.90;99.90
4487;DHT22;2256;48.740;9.106;2022-07-03T03:48:00;16.90;99.90
4487;DHT22;2256;48.740;9.106;2022-07-03T03:50:27;17.00;99.90
4487;DHT22;2256;48.740;9.106;2022-07-03T03:52:54;17.10;99.90
4487;DHT22;2256;48.740;9.106;2022-07-03T03:55:21;17.10;99.90
4487;DHT22;2256;48.740;9.106;2022-07-03T03:57:48;17.10;99.90
4487;DHT22;2256;48.740;9.106;2022-07-03T04:00:15;17.10;99.90
4487;DHT22;2256;48.740;9.106;2022-07-03T04:02:42;17.00;99.90
4487;DHT22;2256;48.740;9.106;2022-07-03T04:05:10;17.10;99.90
4487;DHT22;2256;48.740;9.106;2022-07-03T04:07:37;17.10;99.90
4487;DHT22;2256;48.740;9.106;2022-07-03T04:10:04;17.20;99.90
4487;DHT22;2256;48.740;9.106;2022-07-03T04:12:31;17.30;99.90
4487;DHT22;2256;48.740;9.106;2022-07-03T04:14:58;17.30;99.90
4487;DHT22;2256;48.740;9.106;2022-07-03T04:17:25;17.40;99.90
4487;DHT22;2256;48.740;9.106;2022-07-03T04:19:52;17.40;99.90
4487;DHT22;2256;48.740;9.106;2022-07-03T04:22:20;17.50;99.90
4487;DHT22;2256;48.740;9.106;2022-07-03T04:24:48;17.40;99.90
4487;DHT22;2256;48.740;9.106;2022-07-03T04:27:15;17.50;99.90
4487;DHT22;2256;48.740;9.106;2022-07-03T04:29:41;17.50;99.90
4487;DHT22;2256;48.740;9.106;2022-07-03T04:32:08;17.50;99.90
4487;DHT22;2256;48.740;9.106;2022-07-03T04:34:36;17.60;99.90
4487;DHT22;2256;48.740;9.106;2022-07-03T04:37:03;17.60;99.90
4487;DHT22;2256;48.740;9.106;2022-07-03T04:39:31;17.60;99.90
4487;DHT22;2256;48.740;9.106;2022-07-03T04:41:58;17.60;99.90
4487;DHT22;2256;48.740;9.106;2022-07-03T04:44:26;17.70;99.90
4487;DHT22;2256;48.740;9.106;2022-07-03T04:46:53;17.70;99.90
4487;DHT22;2256;48.740;9.106;2022-07-03T04:49:20;17.70;99.90
4487;DHT22;2256;48.740;9.106;2022-07-03T04:51:46;17.70;99.90
4487;DHT22;2256;48.740;9.106;2022-07-03T04:54:13;17.70;99.90
4487;DHT22;2256;48.740;9.106;2022-07-03T04:56:41;17.80;99.90
4487;DHT22;2256;48.740;9.106;2022-07-03T04:59:08;17.90;99.90
4487;DHT22;2256;48.740;9.106;2022-07-03T05:01:35;18.10;99.90
4487;DHT22;2256;48.740;9.106;2022-07-03T05:04:02;18.10;99.90
4487;DHT22;2256;48.740;9.106;2022-07-03T05:06:28;18.30;99.90
4487;DHT22;2256;48.740;9.106;2022-07-03T05:08:55;18.50;99.90
4487;DHT22;2256;48.740;9.106;2022-07-03T05:11:22;18.50;99.90
4487;DHT22;2256;48.740;9.106;2022-07-03T05:13:50;18.60;99.90
4487;DHT22;2256;48.740;9.106;2022-07-03T05:16:17;18.70;99.90
4487;DHT22;2256;48.740;9.106;2022-07-03T05:18:44;18.70;99.90
4487;DHT22;2256;48.740;9.106;2022-07-03T05:21:10;18.80;99.90
4487;DHT22;2256;48.740;9.106;2022-07-03T05:23:37;18.80;99.90
4487;DHT22;2256;48.740;9.106;2022-07-03T05:26:04;18.90;99.90
4487;DHT22;2256;48.740;9.106;2022-07-03T05:28:31;19.00;99.90
4487;DHT22;2256;48.740;9.106;2022-07-03T05:30:59;19.10;99.90
4487;DHT22;2256;48.740;9.106;2022-07-03T05:33:26;19.20;99.90
4487;DHT22;2256;48.740;9.106;2022-07-03T05:35:54;19.30;99.90
4487;DHT22;2256;48.740;9.106;2022-07-03T05:38:21;19.30;99.90
4487;DHT22;2256;48.740;9.106;2022-07-03T05:41:02;19.40;99.90
4487;DHT22;2256;48.740;9.106;2022-07-03T05:43:29;19.50;99.90
4487;DHT22;2256;48.740;9.106;2022-07-03T05:45:55;19.50;99.90
4487;DHT22;2256;48.740;9.106;2022-07-03T05:48:24;19.60;99.90
4487;DHT22;2256;48.740;9.106;2022-07-03T05:50:50;19.60;99.90
4487;DHT22;2256;48.740;9.106;2022-07-03T05:53:18;19.70;99.90
4487;DHT22;2256;48.740;9.106;2022-07-03T05:55:44;19.80;99.90
4487;DHT22;2256;48.740;9.106;2022-07-03T05:58:11;19.90;99.90
4487;DHT22;2256;48.740;9.106;2022-07-03T06:00:38;20.00;99.90
4487;DHT22;2256;48.740;9.106;2022-07-03T06:03:05;20.00;99.90
4487;DHT22;2256;48.740;9.106;2022-07-03T06:05:33;20.10;99.90
4487;DHT22;2256;48.740;9.106;2022-07-03T06:08:00;20.20;99.90
4487;DHT22;2256;48.740;9.106;2022-07-03T06:10:28;20.20;99.90
4487;DHT22;2256;48.740;9.106;2022-07-03T06:12:55;20.30;99.90
4487;DHT22;2256;48.740;9.106;2022-07-03T06:15:22;20.40;99.90
4487;DHT22;2256;48.740;9.106;2022-07-03T06:17:49;20.40;99.90
4487;DHT22;2256;48.740;9.106;2022-07-03T06:20:17;20.50;99.90
4487;DHT22;2256;48.740;9.106;2022-07-03T06:22:45;20.80;99.90
4487;DHT22;2256;48.740;9.106;2022-07-03T06:25:12;21.00;99.90
4487;DHT22;2256;48.740;9.106;2022-07-03T06:27:39;21.20;99.90
4487;DHT22;2256;48.740;9.106;2022-07-03T06:30:07;21.30;99.90
4487;DHT22;2256;48.740;9.106;2022-07-03T06:32:34;21.50;99.60
4487;DHT22;2256;48.740;9.106;2022-07-03T06:35:01;22.00;99.10
4487;DHT22;2256;48.740;9.106;2022-07-03T06:37:28;23.00;98.30
4487;DHT22;2256;48.740;9.106;2022-07-03T06:39:56;24.40;96.80
4487;DHT22;2256;48.740;9.106;2022-07-03T06:42:22;25.80;94.80
4487;DHT22;2256;48.740;9.106;2022-07-03T06:44:49;27.00;92.80
4487;DHT22;2256;48.740;9.106;2022-07-03T06:47:16;28.00;91.00
4487;DHT22;2256;48.740;9.106;2022-07-03T06:49:43;28.90;89.70
4487;DHT22;2256;48.740;9.106;2022-07-03T06:52:10;29.70;86.50
4487;DHT22;2256;48.740;9.106;2022-07-03T06:54:37;30.30;84.40
4487;DHT22;2256;48.740;9.106;2022-07-03T06:57:08;30.80;82.70
4487;DHT22;2256;48.740;9.106;2022-07-03T06:59:35;31.20;81.00
4487;DHT22;2256;48.740;9.106;2022-07-03T07:02:02;31.60;79.70
4487;DHT22;2256;48.740;9.106;2022-07-03T07:04:28;31.80;78.30
4487;DHT22;2256;48.740;9.106;2022-07-03T07:06:55;32.00;75.80
4487;DHT22;2256;48.740;9.106;2022-07-03T07:09:22;32.40;76.80
4487;DHT22;2256;48.740;9.106;2022-07-03T07:11:49;32.60;74.20
4487;DHT22;2256;48.740;9.106;2022-07-03T07:14:17;32.70;73.80
4487;DHT22;2256;48.740;9.106;2022-07-03T07:16:43;33.10;73.30
4487;DHT22;2256;48.740;9.106;2022-07-03T07:19:10;33.40;72.00
4487;DHT22;2256;48.740;9.106;2022-07-03T07:21:37;33.80;71.30
4487;DHT22;2256;48.740;9.106;2022-07-03T07:24:05;33.60;70.90
4487;DHT22;2256;48.740;9.106;2022-07-03T07:26:32;33.60;69.90
4487;DHT22;2256;48.740;9.106;2022-07-03T07:28:58;33.40;68.90
4487;DHT22;2256;48.740;9.106;2022-07-03T07:31:27;33.40;69.10
4487;DHT22;2256;48.740;9.106;2022-07-03T07:33:53;33.70;68.50
4487;DHT22;2256;48.740;9.106;2022-07-03T07:36:20;34.10;67.90
4487;DHT22;2256;48.740;9.106;2022-07-03T07:38:47;34.40;66.10
4487;DHT22;2256;48.740;9.106;2022-07-03T07:41:14;33.70;66.80
4487;DHT22;2256;48.740;9.106;2022-07-03T07:43:41;33.40;67.60
4487;DHT22;2256;48.740;9.106;2022-07-03T07:46:07;33.50;67.00
4487;DHT22;2256;48.740;9.106;2022-07-03T07:48:36;33.70;67.00
4487;DHT22;2256;48.740;9.106;2022-07-03T07:51:03;34.00;66.10
4487;DHT22;2256;48.740;9.106;2022-07-03T07:53:29;34.10;64.60
4487;DHT22;2256;48.740;9.106;2022-07-03T07:55:56;33.70;65.50
4487;DHT22;2256;48.740;9.106;2022-07-03T07:58:23;33.70;65.30
4487;DHT22;2256;48.740;9.106;2022-07-03T08:00:50;33.80;65.40
4487;DHT22;2256;48.740;9.106;2022-07-03T08:03:36;33.80;65.70
4487;DHT22;2256;48.740;9.106;2022-07-03T08:06:20;33.70;64.90
4487;DHT22;2256;48.740;9.106;2022-07-03T08:08:47;34.10;65.10
4487;DHT22;2256;48.740;9.106;2022-07-03T08:11:14;34.30;64.80
4487;DHT22;2256;48.740;9.106;2022-07-03T08:13:41;34.40;64.90
4487;DHT22;2256;48.740;9.106;2022-07-03T08:16:09;34.40;65.30
4487;DHT22;2256;48.740;9.106;2022-07-03T08:18:37;34.40;64.30
4487;DHT22;2256;48.740;9.106;2022-07-03T08:21:04;34.40;64.50
4487;DHT22;2256;48.740;9.106;2022-07-03T08:23:31;34.60;63.00
4487;DHT22;2256;48.740;9.106;2022-07-03T08:25:57;34.80;63.10
4487;DHT22;2256;48.740;9.106;2022-07-03T08:28:24;35.10;62.10
4487;DHT22;2256;48.740;9.106;2022-07-03T08:30:51;35.20;61.40
4487;DHT22;2256;48.740;9.106;2022-07-03T08:33:18;35.30;62.00
4487;DHT22;2256;48.740;9.106;2022-07-03T08:35:46;35.50;61.40
4487;DHT22;2256;48.740;9.106;2022-07-03T08:38:14;35.50;63.30
4487;DHT22;2256;48.740;9.106;2022-07-03T08:40:42;35.50;61.60
4487;DHT22;2256;48.740;9.106;2022-07-03T08:43:09;35.70;60.60
4487;DHT22;2256;48.740;9.106;2022-07-03T08:45:37;35.60;61.40
4487;DHT22;2256;48.740;9.106;2022-07-03T08:48:05;35.50;60.70
4487;DHT22;2256;48.740;9.106;2022-07-03T08:50:34;35.50;60.80
4487;DHT22;2256;48.740;9.106;2022-07-03T08:53:03;35.30;60.00
4487;DHT22;2256;48.740;9.106;2022-07-03T08:55:31;35.10;62.00
4487;DHT22;2256;48.740;9.106;2022-07-03T08:57:58;34.90;59.70
4487;DHT22;2256;48.740;9.106;2022-07-03T09:00:27;35.10;60.80
4487;DHT22;2256;48.740;9.106;2022-07-03T09:02:54;35.10;59.40
4487;DHT22;2256;48.740;9.106;2022-07-03T09:05:23;34.80;59.30
4487;DHT22;2256;48.740;9.106;2022-07-03T09:07:51;34.50;61.70
4487;DHT22;2256;48.740;9.106;2022-07-03T09:10:20;34.50;58.30
4487;DHT22;2256;48.740;9.106;2022-07-03T09:12:48;34.60;59.20
4487;DHT22;2256;48.740;9.106;2022-07-03T09:15:15;34.50;59.30
4487;DHT22;2256;48.740;9.106;2022-07-03T09:17:56;34.30;59.90
4487;DHT22;2256;48.740;9.106;2022-07-03T09:20:28;34.50;59.00
4487;DHT22;2256;48.740;9.106;2022-07-03T09:23:09;34.80;56.40
4487;DHT22;2256;48.740;9.106;2022-07-03T09:25:53;34.60;56.80
4487;DHT22;2256;48.740;9.106;2022-07-03T09:28:22;34.40;57.70
4487;DHT22;2256;48.740;9.106;2022-07-03T09:30:59;34.10;57.80
4487;DHT22;2256;48.740;9.106;2022-07-03T09:33:27;33.70;59.70
4487;DHT22;2256;48.740;9.106;2022-07-03T09:35:55;33.80;58.40
4487;DHT22;2256;48.740;9.106;2022-07-03T09:38:23;33.90;58.90
4487;DHT22;2256;48.740;9.106;2022-07-03T09:40:52;34.40;57.70
4487;DHT22;2256;48.740;9.106;2022-07-03T09:43:24;34.90;58.70
4487;DHT22;2256;48.740;9.106;2022-07-03T09:45:53;35.30;59.10
4487;DHT22;2256;48.740;9.106;2022-07-03T09:48:22;35.50;59.00
4487;DHT22;2256;48.740;9.106;2022-07-03T09:50:48;35.30;59.30
4487;DHT22;2256;48.740;9.106;2022-07-03T09:53:15;35.40;59.20
4487;DHT22;2256;48.740;9.106;2022-07-03T09:55:56;35.50;58.00
4487;DHT22;2256;48.740;9.106;2022-07-03T09:58:24;35.50;58.40
4487;DHT22;2256;48.740;9.106;2022-07-03T10:00:51;35.60;57.50
4487;DHT22;2256;48.740;9.106;2022-07-03T10:03:20;35.10;58.60
4487;DHT22;2256;48.740;9.106;2022-07-03T10:05:50;35.10;58.40
4487;DHT22;2256;48.740;9.106;2022-07-03T10:08:16;35.10;57.50
4487;DHT22;2256;48.740;9.106;2022-07-03T10:10:46;34.80;58.50
4487;DHT22;2256;48.740;9.106;2022-07-03T10:13:15;34.90;60.00
4487;DHT22;2256;48.740;9.106;2022-07-03T10:15:43;34.80;59.80
4487;DHT22;2256;48.740;9.106;2022-07-03T10:18:11;34.70;60.50
4487;DHT22;2256;48.740;9.106;2022-07-03T10:20:40;34.70;60.00
4487;DHT22;2256;48.740;9.106;2022-07-03T10:23:07;34.60;60.60
4487;DHT22;2256;48.740;9.106;2022-07-03T10:25:35;34.60;59.60
4487;DHT22;2256;48.740;9.106;2022-07-03T10:28:03;34.10;61.40
4487;DHT22;2256;48.740;9.106;2022-07-03T10:30:33;33.60;61.30
4487;DHT22;2256;48.740;9.106;2022-07-03T10:33:00;33.20;63.40
4487;DHT22;2256;48.740;9.106;2022-07-03T10:35:32;32.70;62.60
4487;DHT22;2256;48.740;9.106;2022-07-03T10:38:16;32.60;63.90
4487;DHT22;2256;48.740;9.106;2022-07-03T10:40:53;32.40;62.00
4487;DHT22;2256;48.740;9.106;2022-07-03T10:43:40;32.10;60.00
4487;DHT22;2256;48.740;9.106;2022-07-03T10:46:27;31.90;63.00
4487;DHT22;2256;48.740;9.106;2022-07-03T10:49:03;31.80;61.40
4487;DHT22;2256;48.740;9.106;2022-07-03T10:51:32;31.80;63.40
4487;DHT22;2256;48.740;9.106;2022-07-03T10:54:18;31.70;65.70
4487;DHT22;2256;48.740;9.106;2022-07-03T10:57:04;31.60;63.60
4487;DHT22;2256;48.740;9.106;2022-07-03T10:59:56;31.40;63.00
4487;DHT22;2256;48.740;9.106;2022-07-03T11:02:27;31.20;64.10
4487;DHT22;2256;48.740;9.106;2022-07-03T11:05:23;31.20;68.00
4487;DHT22;2256;48.740;9.106;2022-07-03T11:08:10;31.10;67.00
4487;DHT22;2256;48.740;9.106;2022-07-03T11:10:42;31.30;65.00
4487;DHT22;2256;48.740;9.106;2022-07-03T11:13:18;31.10;65.00
4487;DHT22;2256;48.740;9.106;2022-07-03T11:15:51;31.10;65.40
4487;DHT22;2256;48.740;9.106;2022-07-03T11:18:30;31.00;64.40
4487;DHT22;2256;48.740;9.106;2022-07-03T11:21:21;30.90;64.30
4487;DHT22;2256;48.740;9.106;2022-07-03T11:27:18;31.30;66.30
4487;DHT22;2256;48.740;9.106;2022-07-03T11:29:55;31.40;64.40
4487;DHT22;2256;48.740;9.106;2022-07-03T11:32:48;31.40;69.40
4487;DHT22;2256;48.740;9.106;2022-07-03T11:35:48;31.60;66.50
4487;DHT22;2256;48.740;9.106;2022-07-03T11:38:23;31.60;65.60
4487;DHT22;2256;48.740;9.106;2022-07-03T11:40:52;31.60;65.90
4487;DHT22;2256;48.740;9.106;2022-07-03T11:43:19;31.80;65.60
4487;DHT22;2256;48.740;9.106;2022-07-03T11:45:47;31.80;65.10
4487;DHT22;2256;48.740;9.106;2022-07-03T11:48:16;31.90;65.00
4487;DHT22;2256;48.740;9.106;2022-07-03T11:50:45;32.00;63.10
4487;DHT22;2256;48.740;9.106;2022-07-03T11:53:27;32.00;63.70
4487;DHT22;2256;48.740;9.106;2022-07-03T11:55:57;32.00;62.30
4487;DHT22;2256;48.740;9.106;2022-07-03T11:58:25;32.00;62.50
4487;DHT22;2256;48.740;9.106;2022-07-03T12:00:52;32.00;64.00
4487;DHT22;2256;48.740;9.106;2022-07-03T12:03:24;32.10;64.10
4487;DHT22;2256;48.740;9.106;2022-07-03T12:05:53;31.90;63.30
4487;DHT22;2256;48.740;9.106;2022-07-03T12:08:27;31.80;67.70
4487;DHT22;2256;48.740;9.106;2022-07-03T12:11:02;31.90;65.50
4487;DHT22;2256;48.740;9.106;2022-07-03T12:13:29;31.80;61.20
4487;DHT22;2256;48.740;9.106;2022-07-03T12:16:06;31.90;64.60
4487;DHT22;2256;48.740;9.106;2022-07-03T12:18:47;32.00;64.10
4487;DHT22;2256;48.740;9.106;2022-07-03T12:21:16;32.20;64.30
4487;DHT22;2256;48.740;9.106;2022-07-03T12:23:46;32.50;63.40
4487;DHT22;2256;48.740;9.106;2022-07-03T12:26:14;32.50;63.50
4487;DHT22;2256;48.740;9.106;2022-07-03T12:28:53;32.50;61.60
4487;DHT22;2256;48.740;9.106;2022-07-03T12:31:20;32.60;60.80
4487;DHT22;2256;48.740;9.106;2022-07-03T12:33:47;32.60;61.60
4487;DHT22;2256;48.740;9.106;2022-07-03T12:36:14;32.20;60.50
4487;DHT22;2256;48.740;9.106;2022-07-03T12:38:41;32.10;61.90
4487;DHT22;2256;48.740;9.106;2022-07-03T12:41:10;32.10;64.80
4487;DHT22;2256;48.740;9.106;2022-07-03T12:43:38;32.20;62.70
4487;DHT22;2256;48.740;9.106;2022-07-03T12:46:18;32.40;62.30
4487;DHT22;2256;48.740;9.106;2022-07-03T12:48:46;32.50;62.50
4487;DHT22;2256;48.740;9.106;2022-07-03T12:51:14;32.70;60.10
4487;DHT22;2256;48.740;9.106;2022-07-03T12:53:41;32.90;61.30
4487;DHT22;2256;48.740;9.106;2022-07-03T12:56:10;32.80;59.30
4487;DHT22;2256;48.740;9.106;2022-07-03T12:58:38;32.60;60.00
4487;DHT22;2256;48.740;9.106;2022-07-03T13:01:25;32.50;61.10
4487;DHT22;2256;48.740;9.106;2022-07-03T13:03:52;32.60;60.10
4487;DHT22;2256;48.740;9.106;2022-07-03T13:06:20;32.50;60.40
4487;DHT22;2256;48.740;9.106;2022-07-03T13:08:55;32.60;60.40
4487;DHT22;2256;48.740;9.106;2022-07-03T13:11:28;32.80;60.50
4487;DHT22;2256;48.740;9.106;2022-07-03T13:14:04;32.80;57.90
4487;DHT22;2256;48.740;9.106;2022-07-03T13:16:37;32.70;62.60
4487;DHT22;2256;48.740;9.106;2022-07-03T13:19:05;32.90;59.30
4487;DHT22;2256;48.740;9.106;2022-07-03T13:21:32;33.10;58.60
4487;DHT22;2256;48.740;9.106;2022-07-03T13:23:59;33.40;60.70
4487;DHT22;2256;48.740;9.106;2022-07-03T13:26:28;33.40;64.30
4487;DHT22;2256;48.740;9.106;2022-07-03T13:28:54;33.10;63.70
4487;DHT22;2256;48.740;9.106;2022-07-03T13:31:21;32.80;64.90
4487;DHT22;2256;48.740;9.106;2022-07-03T13:33:48;32.30;63.70
4487;DHT22;2256;48.740;9.106;2022-07-03T13:36:15;31.80;64.60
4487;DHT22;2256;48.740;9.106;2022-07-03T13:38:43;31.40;65.20
4487;DHT22;2256;48.740;9.106;2022-07-03T13:41:10;31.00;62.90
4487;DHT22;2256;48.740;9.106;2022-07-03T13:43:38;30.90;64.80
4487;DHT22;2256;48.740;9.106;2022-07-03T13:46:05;31.00;65.10
4487;DHT22;2256;48.740;9.106;2022-07-03T13:48:32;30.90;63.90
4487;DHT22;2256;48.740;9.106;2022-07-03T13:50:58;30.70;64.10
4487;DHT22;2256;48.740;9.106;2022-07-03T13:53:25;30.30;65.80
4487;DHT22;2256;48.740;9.106;2022-07-03T13:55:54;30.40;65.60
4487;DHT22;2256;48.740;9.106;2022-07-03T13:58:21;30.50;66.00
4487;DHT22;2256;48.740;9.106;2022-07-03T14:00:50;30.80;66.20
4487;DHT22;2256;48.740;9.106;2022-07-03T14:03:17;31.00;66.80
4487;DHT22;2256;48.740;9.106;2022-07-03T14:05:43;31.30;67.40
4487;DHT22;2256;48.740;9.106;2022-07-03T14:08:10;31.40;67.30
4487;DHT22;2256;48.740;9.106;2022-07-03T14:10:38;31.20;67.90
4487;DHT22;2256;48.740;9.106;2022-07-03T14:13:05;31.00;67.00
4487;DHT22;2256;48.740;9.106;2022-07-03T14:15:33;30.80;68.70
4487;DHT22;2256;48.740;9.106;2022-07-03T14:18:01;30.80;68.70
4487;DHT22;2256;48.740;9.106;2022-07-03T14:20:29;30.90;70.00
4487;DHT22;2256;48.740;9.106;2022-07-03T14:22:55;30.80;68.70
4487;DHT22;2256;48.740;9.106;2022-07-03T14:25:22;30.60;68.30
4487;DHT22;2256;48.740;9.106;2022-07-03T14:27:50;30.50;68.70
4487;DHT22;2256;48.740;9.106;2022-07-03T14:30:34;30.30;69.20
4487;DHT22;2256;48.740;9.106;2022-07-03T14:33:19;30.20;70.80
4487;DHT22;2256;48.740;9.106;2022-07-03T14:35:46;30.30;69.30
4487;DHT22;2256;48.740;9.106;2022-07-03T14:38:13;30.30;71.20
4487;DHT22;2256;48.740;9.106;2022-07-03T14:40:40;30.20;69.50
4487;DHT22;2256;48.740;9.106;2022-07-03T14:43:07;30.10;70.10
4487;DHT22;2256;48.740;9.106;2022-07-03T14:45:34;30.00;70.00
4487;DHT22;2256;48.740;9.106;2022-07-03T14:48:00;30.20;71.30
4487;DHT22;2256;48.740;9.106;2022-07-03T14:50:29;30.40;69.80
4487;DHT22;2256;48.740;9.106;2022-07-03T14:52:55;30.50;70.30
4487;DHT22;2256;48.740;9.106;2022-07-03T14:55:35;30.50;69.80
4487;DHT22;2256;48.740;9.106;2022-07-03T14:58:05;30.60;69.90
4487;DHT22;2256;48.740;9.106;2022-07-03T15:00:33;30.80;69.10
4487;DHT22;2256;48.740;9.106;2022-07-03T15:03:04;30.80;70.20
4487;DHT22;2256;48.740;9.106;2022-07-03T15:05:34;30.80;69.30
4487;DHT22;2256;48.740;9.106;2022-07-03T15:08:15;30.80;69.20
4487;DHT22;2256;48.740;9.106;2022-07-03T15:10:44;30.70;68.90
4487;DHT22;2256;48.740;9.106;2022-07-03T15:13:13;30.60;69.50
4487;DHT22;2256;48.740;9.106;2022-07-03T15:15:45;30.60;68.40
4487;DHT22;2256;48.740;9.106;2022-07-03T15:18:13;30.70;69.20
4487;DHT22;2256;48.740;9.106;2022-07-03T15:20:43;30.60;69.30
4487;DHT22;2256;48.740;9.106;2022-07-03T15:23:10;30.50;68.60
4487;DHT22;2256;48.740;9.106;2022-07-03T15:25:38;30.40;69.10
4487;DHT22;2256;48.740;9.106;2022-07-03T15:28:08;30.30;68.10
4487;DHT22;2256;48.740;9.106;2022-07-03T15:30:36;30.30;69.10
4487;DHT22;2256;48.740;9.106;2022-07-03T15:33:03;30.40;68.70
4487;DHT22;2256;48.740;9.106;2022-07-03T15:35:31;30.30;68.40
4487;DHT22;2256;48.740;9.106;2022-07-03T15:38:09;30.00;68.50
4487;DHT22;2256;48.740;9.106;2022-07-03T15:40:45;30.00;68.30
4487;DHT22;2256;48.740;9.106;2022-07-03T15:43:22;30.10;68.40
4487;DHT22;2256;48.740;9.106;2022-07-03T15:45:58;30.20;69.80
4487;DHT22;2256;48.740;9.106;2022-07-03T15:48:34;30.10;68.90
4487;DHT22;2256;48.740;9.106;2022-07-03T15:51:07;30.20;68.00
4487;DHT22;2256;48.740;9.106;2022-07-03T15:53:39;30.20;67.60
4487;DHT22;2256;48.740;9.106;2022-07-03T15:56:07;30.20;67.60
4487;DHT22;2256;48.740;9.106;2022-07-03T15:58:36;30.00;68.90
4487;DHT22;2256;48.740;9.106;2022-07-03T16:01:09;30.00;69.10
4487;DHT22;2256;48.740;9.106;2022-07-03T16:04:01;29.90;67.80
4487;DHT22;2256;48.740;9.106;2022-07-03T16:06:29;29.90;69.80
4487;DHT22;2256;48.740;9.106;2022-07-03T16:08:58;29.90;68.30
4487;DHT22;2256;48.740;9.106;2022-07-03T16:11:25;29.70;69.00
4487;DHT22;2256;48.740;9.106;2022-07-03T16:13:53;29.70;69.30
4487;DHT22;2256;48.740;9.106;2022-07-03T16:16:24;29.60;68.40
4487;DHT22;2256;48.740;9.106;2022-07-03T16:18:54;29.60;68.50
4487;DHT22;2256;48.740;9.106;2022-07-03T16:21:21;29.50;68.70
4487;DHT22;2256;48.740;9.106;2022-07-03T16:23:49;29.50;68.30